createdAt,value
2022-09-16T00:03:25.438Z,99844.00
2022-09-16T00:08:27.025Z,99841.28
2022-09-16T00:13:29.076Z,99841.34
2022-09-16T00:18:33.051Z,99840.84
2022-09-16T00:23:34.958Z,99836.97
2022-09-16T00:28:36.465Z,99830.59
2022-09-16T00:33:38.010Z,99832.47
2022-09-16T00:38:39.736Z,99843.59
2022-09-16T00:43:57.357Z,99832.13
2022-09-16T00:49:02.882Z,99830.34
2022-09-16T00:54:06.447Z,99826.06
2022-09-16T00:59:21.712Z,99834.94
2022-09-16T01:04:29.601Z,99816.44
2022-09-16T01:09:31.785Z,99821.63
2022-09-16T01:14:52.046Z,99827.94
2022-09-16T01:20:14.979Z,99836.84
2022-09-16T01:25:34.790Z,99835.56
2022-09-16T01:30:52.518Z,99823.25
2022-09-16T01:36:28.146Z,99823.31
2022-09-16T01:41:29.758Z,99821.97
2022-09-16T01:46:55.620Z,99825.25
2022-09-16T01:52:14.232Z,99814.75
2022-09-16T01:57:30.502Z,99815.00
2022-09-16T02:02:38.729Z,99817.47
2022-09-16T02:07:44.688Z,99814.19
2022-09-16T02:12:49.220Z,99815.66
2022-09-16T02:18:01.164Z,99819.53
2022-09-16T02:23:33.348Z,99833.94
2022-09-16T02:28:39.978Z,99829.56
2022-09-16T02:34:11.162Z,99832.13
2022-09-16T02:39:18.982Z,99828.31
2022-09-16T02:44:20.734Z,99828.13
2022-09-16T02:49:33.686Z,99824.28
2022-09-16T02:54:39.403Z,99827.91
2022-09-16T02:59:41.802Z,99822.97
2022-09-16T03:04:43.364Z,99819.16
2022-09-16T03:09:48.009Z,99820.50
2022-09-16T03:14:56.844Z,99822.63
2022-09-16T03:20:29.589Z,99814.69
2022-09-16T03:26:14.698Z,99808.66
2022-09-16T03:31:38.823Z,99814.72
2022-09-16T03:36:46.009Z,99814.41
2022-09-16T03:41:47.829Z,99813.91
2022-09-16T03:46:49.390Z,99813.34
2022-09-16T03:51:50.945Z,99809.72
2022-09-16T03:56:52.542Z,99801.72
2022-09-16T04:01:54.857Z,99803.41
2022-09-16T04:06:56.412Z,99800.81
2022-09-16T04:11:58.004Z,99802.44
2022-09-16T04:16:59.889Z,99811.31
2022-09-16T04:22:01.517Z,99802.19
2022-09-16T04:27:03.189Z,99806.31
2022-09-16T04:32:04.882Z,99810.50
2022-09-16T04:37:08.536Z,99812.97
2022-09-16T04:42:12.289Z,99810.19
2022-09-16T04:47:14.069Z,99806.59
2022-09-16T04:52:15.620Z,99800.47
2022-09-16T04:57:17.161Z,99812.28
2022-09-16T05:02:20.839Z,99812.53
2022-09-16T05:07:22.414Z,99809.53
2022-09-16T05:12:24.281Z,99807.03
2022-09-16T05:17:49.299Z,99819.06
2022-09-16T05:22:50.074Z,99808.72
2022-09-16T05:27:51.622Z,99818.44
2022-09-16T05:32:54.795Z,99811.22
2022-09-16T05:37:56.468Z,99815.00
2022-09-16T05:42:58.058Z,99819.97
2022-09-16T05:47:59.624Z,99816.75
2022-09-16T05:53:01.169Z,99828.44
2022-09-16T05:58:02.717Z,99825.28
2022-09-16T06:03:04.366Z,99828.91
2022-09-16T06:08:05.890Z,99842.50
2022-09-16T06:13:07.573Z,99853.00
2022-09-16T06:18:09.150Z,99847.09
2022-09-16T06:23:10.781Z,99849.09
2022-09-16T06:28:12.595Z,99859.44
2022-09-16T06:33:15.921Z,99858.59
2022-09-16T06:38:17.459Z,99846.50
2022-09-16T06:43:19.152Z,99855.53
2022-09-16T06:48:20.685Z,99855.50
2022-09-16T06:53:22.441Z,99855.09
2022-09-16T06:58:24.037Z,99846.75
2022-09-16T07:03:25.950Z,99855.50
2022-09-16T07:08:35.301Z,99858.13
2022-09-16T07:13:36.941Z,99857.63
2022-09-16T07:18:38.974Z,99867.56
2022-09-16T07:23:41.939Z,99869.13
2022-09-16T07:28:46.641Z,99865.47
2022-09-16T07:33:50.014Z,99865.13
2022-09-16T07:38:52.544Z,99868.66
2022-09-16T07:43:55.888Z,99865.78
2022-09-16T07:48:59.193Z,99877.13
2022-09-16T07:54:04.239Z,99878.84
2022-09-16T07:59:08.048Z,99884.94
2022-09-16T08:04:12.265Z,99891.03
2022-09-16T08:14:37.292Z,99891.88
2022-09-16T08:19:39.453Z,99896.59
2022-09-16T08:24:41.177Z,99899.91
2022-09-16T08:29:42.702Z,99905.16
2022-09-16T08:34:44.243Z,99913.72
2022-09-16T08:39:48.659Z,99911.78
2022-09-16T08:45:12.940Z,99915.94
2022-09-16T08:50:18.714Z,99916.47
2022-09-16T08:55:35.336Z,99925.59
2022-09-16T09:00:38.405Z,99929.47
2022-09-16T09:05:57.827Z,99934.16
2022-09-16T09:11:09.685Z,99940.53
2022-09-16T09:16:20.395Z,99934.16
2022-09-16T09:21:40.313Z,99931.38
2022-09-16T09:26:49.169Z,99931.41
2022-09-16T09:32:08.765Z,99935.00
2022-09-16T09:37:19.541Z,99939.69
2022-09-16T09:42:27.957Z,99945.50
2022-09-16T09:47:54.056Z,99943.25
2022-09-16T09:53:14.292Z,99949.63
2022-09-16T09:58:26.777Z,99940.22
2022-09-16T10:03:29.789Z,99935.47
2022-09-16T10:08:52.214Z,99945.66
2022-09-16T10:13:57.920Z,99950.00
2022-09-16T10:19:16.932Z,99959.63
2022-09-16T10:24:40.699Z,99956.94
2022-09-16T10:29:42.242Z,99951.44
2022-09-16T10:34:48.138Z,99935.19
2022-09-16T10:39:55.795Z,99927.53
2022-09-16T10:45:15.294Z,99938.66
2022-09-16T10:50:19.045Z,99943.59
2022-09-16T10:55:35.311Z,99944.63
2022-09-16T11:01:07.931Z,99943.41
2022-09-16T11:06:15.348Z,99960.97
2022-09-16T11:11:22.985Z,99955.69
2022-09-16T11:16:47.642Z,99958.06
2022-09-16T11:22:05.314Z,99962.44
2022-09-16T11:27:12.832Z,99960.34
2022-09-16T11:32:38.716Z,99956.88
2022-09-16T11:37:49.944Z,99957.63
2022-09-16T11:43:10.234Z,99955.38
2022-09-16T11:48:30.132Z,99950.69
2022-09-16T11:54:07.115Z,99949.25
2022-09-16T11:59:25.085Z,99941.94
2022-09-16T12:04:40.048Z,99944.84
2022-09-16T12:10:08.443Z,99940.41
2022-09-16T12:15:22.178Z,99937.91
2022-09-16T12:20:37.205Z,99938.16
2022-09-16T12:25:46.323Z,99924.75
2022-09-16T12:31:01.021Z,99925.44
2022-09-16T12:36:28.407Z,99923.66
2022-09-16T12:41:59.545Z,99924.59
2022-09-16T12:47:31.553Z,99925.75
2022-09-16T12:53:04.269Z,99911.09
2022-09-16T12:58:31.110Z,99919.75
2022-09-16T13:03:37.969Z,99903.59
2022-09-16T13:08:39.543Z,99903.94
2022-09-16T13:13:46.072Z,99911.97
2022-09-16T13:18:50.720Z,99910.31
2022-09-16T13:24:01.469Z,99919.56
2022-09-16T13:29:03.164Z,99917.25
2022-09-16T13:34:16.326Z,99919.22
2022-09-16T13:39:35.182Z,99908.13
2022-09-16T13:44:36.657Z,99915.16
2022-09-16T13:49:47.253Z,99903.56
2022-09-16T13:55:09.886Z,99907.59
2022-09-16T14:00:15.247Z,99918.25
2022-09-16T14:05:28.698Z,99923.63
2022-09-16T14:11:06.266Z,99920.88
2022-09-16T14:16:29.237Z,99913.25
2022-09-16T14:21:31.734Z,99903.97
2022-09-16T14:26:34.593Z,99887.31
2022-09-16T14:31:37.363Z,99878.75
2022-09-16T14:36:44.120Z,99890.94
2022-09-16T14:41:48.512Z,99895.53
2022-09-16T14:47:04.633Z,99889.56
2022-09-16T14:52:23.805Z,99901.81
2022-09-16T14:57:30.686Z,99915.44
2022-09-16T15:02:41.064Z,99910.13
2022-09-16T15:08:02.647Z,99908.47
2022-09-16T15:13:12.544Z,99902.94
2022-09-16T15:18:24.419Z,99907.06
2022-09-16T15:23:28.242Z,99893.41
2022-09-16T15:28:29.896Z,99888.22
2022-09-16T15:33:37.024Z,99913.72
2022-09-16T15:38:42.280Z,99918.53
2022-09-16T15:43:46.284Z,99912.38
2022-09-16T15:48:59.182Z,99925.41
2022-09-16T15:54:26.644Z,99939.94
2022-09-16T15:59:46.676Z,99941.22
2022-09-16T16:04:48.693Z,99942.13
2022-09-16T16:09:50.340Z,99923.66
2022-09-16T16:14:53.155Z,99931.69
2022-09-16T16:19:56.056Z,99925.63
2022-09-16T16:24:57.868Z,99924.84
2022-09-16T16:29:59.493Z,99899.34
2022-09-16T16:35:01.566Z,99879.47
2022-09-16T16:40:04.687Z,99859.84
2022-09-16T16:45:06.930Z,99843.53
2022-09-16T16:50:09.077Z,99841.84
2022-09-16T16:55:10.680Z,99841.81
2022-09-16T17:00:13.905Z,99842.06
2022-09-16T17:05:15.483Z,99852.81
2022-09-16T17:10:17.086Z,99849.97
2022-09-16T17:15:18.672Z,99849.94
2022-09-16T17:20:20.219Z,99858.75
2022-09-16T17:25:23.918Z,99870.53
2022-09-16T17:30:25.453Z,99858.91
2022-09-16T17:35:26.981Z,99877.34
2022-09-16T17:40:29.872Z,99885.75
2022-09-16T17:45:34.522Z,99876.41
2022-09-16T17:50:38.571Z,99887.22
2022-09-16T17:55:40.268Z,99877.94
2022-09-16T18:00:43.086Z,99886.34
2022-09-16T18:05:45.183Z,99887.38
2022-09-16T18:10:53.040Z,99896.66
2022-09-16T18:15:54.799Z,99902.22
2022-09-16T18:20:56.589Z,99912.00
2022-09-16T18:26:06.609Z,99917.13
2022-09-16T18:31:12.579Z,99926.13
2022-09-16T18:36:16.090Z,99939.56
2022-09-16T18:41:21.628Z,99934.22
2022-09-16T18:46:34.901Z,99941.31
2022-09-16T18:51:38.708Z,99936.78
2022-09-16T18:56:41.733Z,99938.03
2022-09-16T19:01:44.693Z,99946.03
2022-09-16T19:06:48.581Z,99952.59
2022-09-16T19:11:52.753Z,99960.34
2022-09-16T19:16:54.955Z,99962.00
2022-09-16T19:21:56.616Z,99960.84
2022-09-16T19:26:58.412Z,99956.69
2022-09-16T19:31:59.983Z,99966.75
2022-09-16T19:37:01.602Z,99978.56
2022-09-16T19:42:03.719Z,99979.66
2022-09-16T19:47:05.345Z,99988.09
2022-09-16T19:52:07.045Z,99979.19
2022-09-16T19:57:09.120Z,99974.44
2022-09-16T20:02:11.252Z,99987.59
2022-09-16T20:07:16.949Z,99988.94
2022-09-16T20:12:18.854Z,99997.66
2022-09-16T20:17:20.382Z,99998.75
2022-09-16T20:22:21.916Z,100009.97
2022-09-16T20:27:23.510Z,100006.88
2022-09-16T20:32:27.417Z,100015.34
2022-09-16T20:37:28.990Z,100021.34
2022-09-16T20:42:31.433Z,100030.66
2022-09-16T20:47:32.982Z,100030.41
2022-09-16T20:52:34.548Z,100038.88
2022-09-16T20:57:36.073Z,100036.91
2022-09-16T21:02:37.651Z,100035.72
2022-09-16T21:07:39.222Z,100034.94
2022-09-16T21:12:40.748Z,100035.94
2022-09-16T21:17:42.410Z,100037.56
2022-09-16T21:22:44.561Z,100054.50
2022-09-16T21:27:46.114Z,100062.31
2022-09-16T21:32:47.650Z,100059.13
2022-09-16T21:37:49.208Z,100056.63
2022-09-16T21:42:50.742Z,100064.72
2022-09-16T21:47:53.058Z,100061.41
2022-09-16T21:52:54.664Z,100052.13
2022-09-16T21:57:56.248Z,100064.03
2022-09-16T22:02:57.858Z,100067.13
2022-09-16T22:08:03.008Z,100052.59
2022-09-16T22:13:04.544Z,100056.06
2022-09-16T22:18:06.077Z,100051.19
2022-09-16T22:23:07.612Z,100044.59
2022-09-16T22:28:09.198Z,100047.72
2022-09-16T22:33:10.766Z,100047.38
2022-09-16T22:38:12.305Z,100044.88
2022-09-16T22:43:14.013Z,100049.88
2022-09-16T22:48:16.559Z,100056.53
2022-09-16T22:53:18.096Z,100052.97
2022-09-16T22:58:19.627Z,100048.69
2022-09-16T23:03:21.245Z,100052.59
2022-09-16T23:08:24.224Z,100053.78
2022-09-16T23:13:29.609Z,100050.44
2022-09-16T23:18:33.012Z,100054.53
2022-09-16T23:23:37.030Z,100047.03
2022-09-16T23:28:39.013Z,100050.47
2022-09-16T23:33:41.925Z,100049.16
2022-09-16T23:38:44.956Z,100051.66
2022-09-16T23:43:48.545Z,100058.94
2022-09-16T23:48:53.716Z,100062.28
2022-09-16T23:53:56.752Z,100065.63
2022-09-16T23:59:00.650Z,100056.31
